createdAt,value
2023-03-29T00:02:09.545Z,99.90
2023-03-29T00:04:37.050Z,99.90
2023-03-29T00:07:04.649Z,99.90
2023-03-29T00:09:33.504Z,99.90
2023-03-29T00:12:01.662Z,99.90
2023-03-29T00:14:31.134Z,99.90
2023-03-29T00:16:58.617Z,99.90
2023-03-29T00:19:25.736Z,99.90
2023-03-29T00:21:52.721Z,99.90
2023-03-29T00:24:21.354Z,99.90
2023-03-29T00:26:48.686Z,99.90
2023-03-29T00:29:15.741Z,99.90
2023-03-29T00:31:44.616Z,99.90
2023-03-29T00:34:12.251Z,99.90
2023-03-29T00:36:40.713Z,99.90
2023-03-29T00:39:07.691Z,99.90
2023-03-29T00:41:34.736Z,99.90
2023-03-29T00:44:02.995Z,99.90
2023-03-29T00:46:30.667Z,99.90
2023-03-29T00:49:02.046Z,99.90
2023-03-29T00:51:29.481Z,99.90
2023-03-29T00:53:58.518Z,99.90
2023-03-29T00:56:32.439Z,99.90
2023-03-29T00:59:09.638Z,99.90
2023-03-29T01:01:39.124Z,99.90
2023-03-29T01:04:18.761Z,99.90
2023-03-29T01:06:49.749Z,99.90
2023-03-29T01:09:16.869Z,99.90
2023-03-29T01:11:50.351Z,99.90
2023-03-29T01:14:51.830Z,99.90
2023-03-29T01:17:22.146Z,99.90
2023-03-29T01:20:00.395Z,99.90
2023-03-29T01:23:14.137Z,99.90
2023-03-29T01:25:50.794Z,99.90
2023-03-29T01:28:28.711Z,99.90
2023-03-29T01:31:08.691Z,99.90
2023-03-29T01:33:46.863Z,99.90
2023-03-29T01:36:19.314Z,99.90
2023-03-29T01:38:59.923Z,99.90
2023-03-29T01:42:07.048Z,99.90
2023-03-29T01:44:46.039Z,99.90
2023-03-29T01:47:33.414Z,99.90
2023-03-29T01:50:18.063Z,99.90
2023-03-29T01:52:53.088Z,99.90
2023-03-29T01:55:22.956Z,99.90
2023-03-29T01:57:49.953Z,99.90
2023-03-29T02:00:19.338Z,99.90
2023-03-29T02:02:46.406Z,99.90
2023-03-29T02:05:15.070Z,99.90
2023-03-29T02:07:43.737Z,99.90
2023-03-29T02:10:11.479Z,99.90
2023-03-29T02:12:38.512Z,99.90
2023-03-29T02:15:08.042Z,99.90
2023-03-29T02:17:35.075Z,99.90
2023-03-29T02:20:09.720Z,99.90
2023-03-29T02:22:38.891Z,99.90
2023-03-29T02:25:08.489Z,99.90
2023-03-29T02:27:37.959Z,99.90
2023-03-29T02:30:07.437Z,99.90
2023-03-29T02:32:54.358Z,99.90
2023-03-29T02:35:28.009Z,99.90
2023-03-29T02:37:55.392Z,99.90
2023-03-29T02:40:22.477Z,99.90
2023-03-29T02:42:49.487Z,99.90
2023-03-29T02:45:17.364Z,99.90
2023-03-29T02:47:51.760Z,99.90
2023-03-29T02:50:20.062Z,99.90
2023-03-29T02:52:54.246Z,99.90
2023-03-29T02:55:23.024Z,99.90
2023-03-29T02:57:49.992Z,99.90
2023-03-29T03:00:18.975Z,99.90
2023-03-29T03:02:47.019Z,99.90
2023-03-29T03:05:14.060Z,99.90
2023-03-29T03:07:41.046Z,99.90
2023-03-29T03:10:10.345Z,99.90
2023-03-29T03:12:40.359Z,99.90
2023-03-29T03:15:07.956Z,99.90
2023-03-29T03:17:40.251Z,99.90
2023-03-29T03:20:13.333Z,99.90
2023-03-29T03:22:45.738Z,99.90
2023-03-29T03:25:13.315Z,99.90
2023-03-29T03:27:40.378Z,99.90
2023-03-29T03:30:08.051Z,99.90
2023-03-29T03:32:35.911Z,99.90
2023-03-29T03:35:04.858Z,99.90
2023-03-29T03:37:32.114Z,99.90
2023-03-29T03:39:59.579Z,99.90
2023-03-29T03:42:29.654Z,99.90
2023-03-29T03:44:56.787Z,99.90
2023-03-29T03:47:23.764Z,99.90
2023-03-29T03:49:51.652Z,99.90
2023-03-29T03:52:19.140Z,99.90
2023-03-29T03:54:46.868Z,99.90
2023-03-29T03:57:14.126Z,99.90
2023-03-29T03:59:41.120Z,99.90
2023-03-29T04:02:08.182Z,99.90
2023-03-29T04:04:35.220Z,99.90
2023-03-29T04:07:04.949Z,99.90
2023-03-29T04:09:33.502Z,99.90
2023-03-29T04:12:00.783Z,99.90
2023-03-29T04:14:28.211Z,99.90
2023-03-29T04:16:55.335Z,99.90
2023-03-29T04:19:23.134Z,99.90
2023-03-29T04:21:51.378Z,99.90
2023-03-29T04:24:18.406Z,99.90
2023-03-29T04:26:45.486Z,99.90
2023-03-29T04:29:12.516Z,99.90
2023-03-29T04:31:39.604Z,99.90
2023-03-29T04:34:07.316Z,99.90
2023-03-29T04:36:34.362Z,99.90
2023-03-29T04:39:01.830Z,99.90
2023-03-29T04:41:29.249Z,99.90
2023-03-29T04:43:56.385Z,99.90
2023-03-29T04:46:26.780Z,99.90
2023-03-29T04:48:54.265Z,99.90
2023-03-29T04:51:22.476Z,99.90
2023-03-29T04:53:50.478Z,99.90
2023-03-29T04:56:17.581Z,99.90
2023-03-29T04:58:44.742Z,99.90
2023-03-29T05:01:13.705Z,99.90
2023-03-29T05:03:40.577Z,99.90
2023-03-29T05:06:09.167Z,99.90
2023-03-29T05:08:39.129Z,99.90
2023-03-29T05:11:07.738Z,99.90
2023-03-29T05:13:35.340Z,99.90
2023-03-29T05:16:02.686Z,99.90
2023-03-29T05:18:30.135Z,99.90
2023-03-29T05:20:58.091Z,99.90
2023-03-29T05:23:25.898Z,99.90
2023-03-29T05:25:53.610Z,99.90
2023-03-29T05:28:21.020Z,99.90
2023-03-29T05:30:48.674Z,99.90
2023-03-29T05:33:16.631Z,99.90
2023-03-29T05:35:43.884Z,99.90
2023-03-29T05:40:36.410Z,99.90
2023-03-29T05:43:04.045Z,99.90
2023-03-29T05:45:32.718Z,99.90
2023-03-29T05:47:59.942Z,99.90
2023-03-29T05:50:27.219Z,99.90
2023-03-29T05:52:54.633Z,99.90
2023-03-29T05:55:21.611Z,99.90
2023-03-29T05:57:48.615Z,99.90
2023-03-29T06:00:24.187Z,99.90
2023-03-29T06:02:59.274Z,99.90
2023-03-29T06:05:34.110Z,99.90
2023-03-29T06:08:01.926Z,99.90
2023-03-29T06:10:28.950Z,99.90
2023-03-29T06:12:56.703Z,99.90
2023-03-29T06:15:24.382Z,99.90
2023-03-29T06:17:51.667Z,99.90
2023-03-29T06:20:18.775Z,99.90
2023-03-29T06:22:48.093Z,99.90
2023-03-29T06:25:15.730Z,99.90
2023-03-29T06:27:43.020Z,99.90
2023-03-29T06:30:10.548Z,99.90
2023-03-29T06:32:37.657Z,99.90
2023-03-29T06:35:05.213Z,99.90
2023-03-29T06:37:32.822Z,99.90
2023-03-29T06:40:01.101Z,99.90
2023-03-29T06:42:28.672Z,99.90
2023-03-29T06:44:55.648Z,99.90
2023-03-29T06:47:24.399Z,99.90
2023-03-29T06:49:51.409Z,99.90
2023-03-29T06:52:18.391Z,99.90
2023-03-29T06:54:45.636Z,99.90
2023-03-29T06:57:13.387Z,99.90
2023-03-29T06:59:40.452Z,99.90
2023-03-29T07:02:09.049Z,99.90
2023-03-29T07:04:37.478Z,99.90
2023-03-29T07:10:11.069Z,99.90
2023-03-29T07:12:38.421Z,99.90
2023-03-29T07:15:05.869Z,99.90
2023-03-29T07:17:32.815Z,99.90
2023-03-29T07:19:59.909Z,99.90
2023-03-29T07:22:26.903Z,99.90
2023-03-29T07:24:54.457Z,99.90
2023-03-29T07:27:22.737Z,99.90
2023-03-29T07:29:50.234Z,99.90
2023-03-29T07:32:17.528Z,99.90
2023-03-29T07:34:44.661Z,99.90
2023-03-29T07:39:51.157Z,99.90
2023-03-29T08:30:19.419Z,96.50
2023-03-29T08:32:49.923Z,99.20
2023-03-29T08:35:18.675Z,98.50
2023-03-29T08:37:46.143Z,95.40
2023-03-29T08:40:21.647Z,93.40
2023-03-29T08:42:57.864Z,93.90
2023-03-29T08:46:14.108Z,93.70
2023-03-29T08:48:51.245Z,92.50
2023-03-29T08:51:30.769Z,95.10
2023-03-29T08:54:02.755Z,92.00
2023-03-29T08:56:34.006Z,92.70
2023-03-29T08:59:01.235Z,90.90
2023-03-29T09:01:31.894Z,91.80
2023-03-29T09:04:19.129Z,91.90
2023-03-29T09:06:46.515Z,94.60
2023-03-29T09:09:19.401Z,93.50
2023-03-29T09:11:56.797Z,92.60
2023-03-29T09:14:55.985Z,91.40
2023-03-29T09:17:49.723Z,91.70
2023-03-29T09:20:48.320Z,92.10
2023-03-29T09:23:19.673Z,93.10
2023-03-29T09:26:04.910Z,91.00
2023-03-29T09:28:35.154Z,92.00
2023-03-29T09:31:16.957Z,92.20
2023-03-29T09:34:05.400Z,90.00
2023-03-29T09:36:54.047Z,89.60
2023-03-29T09:39:26.476Z,88.00
2023-03-29T09:42:11.811Z,90.50
2023-03-29T09:44:53.514Z,90.80
2023-03-29T09:47:37.352Z,90.00
2023-03-29T09:50:47.534Z,89.20
2023-03-29T09:53:19.637Z,85.50
2023-03-29T09:56:09.106Z,85.70
2023-03-29T09:58:53.388Z,85.90
2023-03-29T10:01:27.676Z,83.80
2023-03-29T10:03:56.109Z,83.80
2023-03-29T10:06:24.297Z,83.50
2023-03-29T10:08:57.774Z,84.20
2023-03-29T10:11:38.999Z,83.50
2023-03-29T10:17:46.362Z,81.60
2023-03-29T10:20:18.928Z,83.10
2023-03-29T10:22:54.647Z,82.10
2023-03-29T10:25:25.351Z,82.50
2023-03-29T10:28:02.547Z,80.80
2023-03-29T10:30:29.551Z,81.80
2023-03-29T10:33:00.358Z,83.40
2023-03-29T10:35:41.756Z,83.80
2023-03-29T10:38:13.655Z,82.60
2023-03-29T10:40:48.233Z,83.40
2023-03-29T10:43:45.955Z,84.40
2023-03-29T10:46:19.633Z,85.50
2023-03-29T10:48:57.667Z,85.60
2023-03-29T10:51:25.069Z,86.00
2023-03-29T10:53:52.021Z,83.90
2023-03-29T10:56:28.098Z,83.50
2023-03-29T10:59:07.710Z,83.20
2023-03-29T11:01:53.357Z,79.90
2023-03-29T11:04:39.235Z,80.60
2023-03-29T11:07:24.546Z,79.40
2023-03-29T11:10:19.695Z,79.10
2023-03-29T11:13:17.581Z,77.10
2023-03-29T11:16:06.250Z,77.20
2023-03-29T11:18:41.455Z,78.00
2023-03-29T11:21:11.786Z,75.00
2023-03-29T11:23:38.771Z,75.30
2023-03-29T11:26:28.943Z,75.30
2023-03-29T11:29:20.099Z,74.00
2023-03-29T11:31:57.689Z,74.60
2023-03-29T11:35:01.635Z,76.40
2023-03-29T11:37:34.358Z,75.00
2023-03-29T11:40:23.389Z,74.10
2023-03-29T11:42:50.905Z,74.40
2023-03-29T11:45:44.940Z,75.40
2023-03-29T11:48:26.209Z,77.20
2023-03-29T11:50:55.025Z,75.50
2023-03-29T11:53:29.804Z,73.10
2023-03-29T11:55:57.139Z,72.70
2023-03-29T11:58:30.612Z,75.50
2023-03-29T12:01:09.427Z,74.80
2023-03-29T12:03:57.401Z,73.10
2023-03-29T12:06:30.064Z,74.80
2023-03-29T12:09:10.168Z,73.50
2023-03-29T12:11:48.417Z,73.10
2023-03-29T12:14:24.495Z,72.70
2023-03-29T12:17:01.329Z,73.70
2023-03-29T12:19:38.220Z,75.20
2023-03-29T12:22:08.748Z,74.50
2023-03-29T12:24:36.715Z,74.90
2023-03-29T12:27:09.482Z,74.40
2023-03-29T12:29:45.685Z,75.50
2023-03-29T12:32:35.212Z,75.20
2023-03-29T12:35:34.421Z,75.00
2023-03-29T12:38:08.418Z,72.70
2023-03-29T12:40:43.525Z,73.40
2023-03-29T12:43:28.535Z,73.60
2023-03-29T12:46:15.067Z,69.40
2023-03-29T12:48:42.447Z,70.50
2023-03-29T12:51:13.998Z,71.40
2023-03-29T12:53:41.567Z,71.20
2023-03-29T12:56:16.940Z,69.70
2023-03-29T12:58:55.595Z,66.10
2023-03-29T13:01:26.678Z,67.20
2023-03-29T13:04:18.914Z,69.50
2023-03-29T13:06:49.211Z,69.00
2023-03-29T13:09:24.500Z,68.80
2023-03-29T13:11:58.291Z,68.70
2023-03-29T13:14:27.795Z,70.00
2023-03-29T13:16:54.908Z,69.40
2023-03-29T13:19:40.776Z,71.20
2023-03-29T13:22:13.966Z,68.80
2023-03-29T13:24:56.304Z,70.50
2023-03-29T13:27:53.774Z,70.60
2023-03-29T13:30:26.839Z,70.70
2023-03-29T13:33:21.474Z,69.90
2023-03-29T13:35:57.425Z,68.80
2023-03-29T13:38:43.539Z,68.50
2023-03-29T13:41:33.572Z,68.80
2023-03-29T13:44:00.570Z,69.00
2023-03-29T13:46:38.854Z,68.30
2023-03-29T13:49:22.195Z,68.10
2023-03-29T13:52:27.708Z,67.80
2023-03-29T13:54:58.101Z,68.10
2023-03-29T13:57:44.025Z,65.90
2023-03-29T14:00:23.127Z,64.50
2023-03-29T14:02:56.837Z,65.70
2023-03-29T14:05:41.812Z,65.00
2023-03-29T14:08:22.194Z,66.20
2023-03-29T14:10:49.078Z,67.00
2023-03-29T14:13:17.880Z,68.00
2023-03-29T14:15:55.782Z,67.40
2023-03-29T14:18:23.950Z,67.10
2023-03-29T14:20:54.942Z,66.90
2023-03-29T14:23:23.375Z,67.30
2023-03-29T14:25:50.320Z,69.40
2023-03-29T14:28:23.073Z,69.30
2023-03-29T14:30:52.605Z,70.30
2023-03-29T14:33:34.472Z,70.50
2023-03-29T14:36:03.897Z,72.80
2023-03-29T14:38:31.537Z,71.20
2023-03-29T14:41:01.916Z,73.10
2023-03-29T14:43:31.156Z,75.80
2023-03-29T14:45:58.570Z,75.20
2023-03-29T14:48:25.600Z,77.00
2023-03-29T14:50:53.924Z,76.70
2023-03-29T14:53:22.192Z,75.80
2023-03-29T14:55:51.772Z,75.50
2023-03-29T14:58:23.406Z,77.10
2023-03-29T15:00:59.453Z,76.50
2023-03-29T15:03:29.577Z,77.20
2023-03-29T15:06:02.412Z,76.10
2023-03-29T15:08:32.524Z,76.70
2023-03-29T15:10:59.608Z,77.10
2023-03-29T15:13:27.664Z,77.50
2023-03-29T15:15:57.579Z,78.30
2023-03-29T15:18:28.694Z,78.20
2023-03-29T15:20:55.785Z,78.40
2023-03-29T15:23:26.346Z,79.10
2023-03-29T15:25:58.580Z,78.70
2023-03-29T15:28:34.932Z,80.10
2023-03-29T15:31:13.547Z,80.50
2023-03-29T15:36:07.310Z,82.90
2023-03-29T15:38:43.103Z,82.20
2023-03-29T15:41:11.383Z,83.10
2023-03-29T15:43:38.384Z,83.70
2023-03-29T15:46:05.781Z,82.80
2023-03-29T15:48:33.889Z,83.40
2023-03-29T15:51:05.702Z,84.10
2023-03-29T15:53:33.295Z,84.50
2023-03-29T15:56:02.244Z,85.00
2023-03-29T15:58:31.037Z,84.20
2023-03-29T16:01:11.304Z,85.90
2023-03-29T16:03:39.346Z,85.00
2023-03-29T16:06:06.789Z,84.30
2023-03-29T16:08:33.656Z,85.60
2023-03-29T16:11:00.724Z,86.90
2023-03-29T16:13:27.655Z,87.70
2023-03-29T16:15:54.553Z,87.60
2023-03-29T16:18:21.458Z,88.40
2023-03-29T16:20:48.404Z,87.90
2023-03-29T16:23:15.546Z,88.10
2023-03-29T16:25:43.476Z,88.10
2023-03-29T16:28:10.366Z,88.80
2023-03-29T16:30:37.580Z,90.10
2023-03-29T16:33:08.670Z,91.70
2023-03-29T16:35:40.183Z,90.90
2023-03-29T16:38:07.420Z,92.30
2023-03-29T16:40:34.939Z,92.70
2023-03-29T16:43:02.765Z,92.70
2023-03-29T16:45:29.796Z,93.40
2023-03-29T16:47:57.148Z,94.00
2023-03-29T16:50:24.456Z,95.10
2023-03-29T16:52:54.237Z,95.30
2023-03-29T16:55:21.336Z,97.30
2023-03-29T16:57:48.937Z,96.50
2023-03-29T17:00:17.037Z,96.60
2023-03-29T17:02:44.323Z,98.40
2023-03-29T17:05:12.111Z,98.50
2023-03-29T17:07:43.395Z,99.70
2023-03-29T17:10:13.989Z,99.90
2023-03-29T17:12:41.161Z,99.90
2023-03-29T17:15:09.837Z,99.90
2023-03-29T17:17:37.860Z,99.90
2023-03-29T17:20:08.721Z,99.90
2023-03-29T17:22:36.192Z,99.90
2023-03-29T17:25:06.441Z,99.90
2023-03-29T17:27:37.707Z,99.90
2023-03-29T17:30:06.744Z,99.90
2023-03-29T17:32:33.993Z,99.90
2023-03-29T17:35:01.139Z,99.90
2023-03-29T17:37:28.128Z,99.90
2023-03-29T17:39:55.553Z,99.90
2023-03-29T17:42:22.522Z,99.90
2023-03-29T17:44:49.636Z,99.90
2023-03-29T17:47:16.630Z,99.90
2023-03-29T17:49:43.584Z,99.90
2023-03-29T17:52:10.624Z,99.90
2023-03-29T17:54:37.697Z,99.90
2023-03-29T17:57:04.743Z,99.90
2023-03-29T17:59:31.833Z,99.90
2023-03-29T18:02:00.209Z,99.90
2023-03-29T18:04:27.197Z,99.90
2023-03-29T18:06:55.148Z,99.90
2023-03-29T18:09:22.110Z,99.90
2023-03-29T18:11:49.834Z,99.90
2023-03-29T18:14:17.315Z,99.90
2023-03-29T18:16:48.771Z,99.90
2023-03-29T18:19:19.674Z,99.90
2023-03-29T18:21:46.767Z,99.90
2023-03-29T18:24:17.015Z,99.90
2023-03-29T18:26:43.914Z,99.90
2023-03-29T18:29:10.849Z,99.90
2023-03-29T18:31:40.285Z,99.90
2023-03-29T18:34:08.363Z,99.90
2023-03-29T18:36:35.571Z,99.90
2023-03-29T18:39:06.014Z,99.90
2023-03-29T18:41:34.984Z,99.90
2023-03-29T18:44:02.060Z,99.90
2023-03-29T18:46:31.397Z,99.90
2023-03-29T18:49:01.879Z,99.90
2023-03-29T18:51:30.413Z,99.90
2023-03-29T18:53:57.407Z,99.90
2023-03-29T18:56:24.437Z,99.90
2023-03-29T18:58:52.299Z,99.90
2023-03-29T19:01:19.354Z,99.90
2023-03-29T19:03:47.148Z,99.90
2023-03-29T19:06:14.814Z,99.90
2023-03-29T19:08:42.308Z,99.90
2023-03-29T19:11:10.613Z,99.90
2023-03-29T19:13:38.853Z,99.90
2023-03-29T19:16:06.581Z,99.90
2023-03-29T19:18:43.250Z,99.90
2023-03-29T19:21:10.814Z,99.90
2023-03-29T19:23:37.830Z,99.90
2023-03-29T19:26:06.682Z,99.90
2023-03-29T19:28:33.976Z,99.90
2023-03-29T19:31:04.431Z,99.90
2023-03-29T19:33:31.942Z,99.90
2023-03-29T19:35:59.112Z,99.90
2023-03-29T19:38:26.478Z,99.90
2023-03-29T19:40:53.651Z,99.90
2023-03-29T19:43:21.074Z,99.90
2023-03-29T19:45:49.142Z,99.90
2023-03-29T19:48:22.242Z,99.90
2023-03-29T19:50:50.421Z,99.90
2023-03-29T19:53:17.498Z,99.90
2023-03-29T19:55:45.575Z,99.90
2023-03-29T19:58:13.387Z,99.90
2023-03-29T20:00:41.932Z,99.90
2023-03-29T20:03:14.106Z,99.90
2023-03-29T20:05:41.576Z,99.90
2023-03-29T20:08:09.117Z,99.90
2023-03-29T20:10:36.319Z,99.90
2023-03-29T20:13:03.434Z,99.90
2023-03-29T20:15:30.392Z,99.90
2023-03-29T20:17:59.887Z,99.90
2023-03-29T20:20:27.272Z,99.90
2023-03-29T20:23:04.540Z,99.90
2023-03-29T20:25:33.377Z,99.90
2023-03-29T20:28:00.748Z,99.90
2023-03-29T20:30:27.745Z,99.90
2023-03-29T20:32:54.984Z,99.90
2023-03-29T20:35:22.077Z,99.90
2023-03-29T20:37:49.126Z,99.90
2023-03-29T20:40:16.287Z,99.90
2023-03-29T20:42:46.373Z,99.90
2023-03-29T20:45:18.574Z,99.90
2023-03-29T20:47:50.678Z,99.90
2023-03-29T20:52:46.512Z,99.90
2023-03-29T20:55:13.521Z,99.90
2023-03-29T20:57:42.346Z,99.90
2023-03-29T21:00:12.227Z,99.90
2023-03-29T21:02:39.560Z,99.90
2023-03-29T21:05:09.951Z,99.90
2023-03-29T21:07:37.660Z,99.90
2023-03-29T21:10:05.364Z,99.90
2023-03-29T21:12:32.449Z,99.90
2023-03-29T21:15:00.440Z,99.90
2023-03-29T21:17:27.933Z,99.90
2023-03-29T21:19:55.191Z,99.90
2023-03-29T21:22:22.563Z,99.90
2023-03-29T21:24:49.642Z,99.90
2023-03-29T21:27:16.759Z,99.90
2023-03-29T21:29:44.147Z,99.90
2023-03-29T21:32:11.348Z,99.90
2023-03-29T21:34:38.374Z,99.90
2023-03-29T21:37:05.796Z,99.90
2023-03-29T21:39:32.692Z,99.90
2023-03-29T21:41:59.761Z,99.90
2023-03-29T21:44:26.868Z,99.90
2023-03-29T21:46:53.967Z,99.90
2023-03-29T21:49:21.847Z,99.90
2023-03-29T21:51:49.150Z,99.90
2023-03-29T21:54:16.181Z,99.90
2023-03-29T21:56:44.272Z,99.90
2023-03-29T21:59:11.318Z,99.90
2023-03-29T22:01:38.269Z,99.90
2023-03-29T22:04:05.374Z,99.90
2023-03-29T22:06:32.501Z,99.90
2023-03-29T22:09:00.874Z,99.90
2023-03-29T22:11:30.989Z,99.90
2023-03-29T22:13:57.981Z,99.90
2023-03-29T22:16:25.956Z,99.90
2023-03-29T22:18:54.423Z,99.90
2023-03-29T22:21:23.591Z,99.90
2023-03-29T22:23:52.262Z,99.90
2023-03-29T22:26:21.114Z,99.90
2023-03-29T22:28:48.081Z,99.90
2023-03-29T22:31:16.141Z,99.90
2023-03-29T22:33:43.181Z,99.90
2023-03-29T22:36:13.266Z,99.90
2023-03-29T22:38:41.145Z,99.90
2023-03-29T22:41:08.494Z,99.90
2023-03-29T22:43:36.740Z,99.90
2023-03-29T22:46:07.515Z,99.90
2023-03-29T22:48:34.713Z,99.90
2023-03-29T22:51:01.956Z,99.90
2023-03-29T22:53:29.099Z,99.90
2023-03-29T22:55:56.505Z,99.90
2023-03-29T22:58:23.694Z,99.90
2023-03-29T23:00:51.278Z,99.90
2023-03-29T23:03:18.459Z,99.90
2023-03-29T23:05:58.486Z,99.90
2023-03-29T23:08:25.882Z,99.90
2023-03-29T23:10:52.938Z,99.90
2023-03-29T23:13:24.304Z,99.90
2023-03-29T23:15:52.150Z,99.90
2023-03-29T23:18:21.235Z,99.90
2023-03-29T23:20:48.686Z,99.90
2023-03-29T23:23:16.393Z,99.90
2023-03-29T23:25:45.810Z,99.90
2023-03-29T23:28:13.303Z,99.90
2023-03-29T23:30:40.337Z,99.90
2023-03-29T23:33:07.460Z,99.90
2023-03-29T23:35:34.457Z,99.90
2023-03-29T23:38:01.456Z,99.90
2023-03-29T23:40:28.339Z,99.90
2023-03-29T23:42:59.764Z,99.90
2023-03-29T23:45:28.023Z,99.90
2023-03-29T23:47:55.923Z,99.90
2023-03-29T23:50:23.056Z,99.90
2023-03-29T23:52:51.752Z,99.90
2023-03-29T23:55:19.029Z,99.90
2023-03-29T23:57:46.402Z,99.90
